Saturday, February 24, 2018, 10:25 PM EST
Back to Local

KJFK, Kennedy International Airport

Location: Rosedale, NY, United States Lat: 40.633
Local Time: 10:25 PM EST ( 3:25 GMT) Lon: -73.767
Time Zone: US/Eastern Elev: 13 ft

Show me the last for .
Show Decoded

2018-02-24 21:51 METAR KJFK 250251Z 04011KT 3SM -RA BR OVC008 07/07 A3023 RMK AO2 SFC VIS 5
                 SLP236 P0001 60002 T00720067 53015 =
2018-02-24 21:25 METAR KJFK 250225Z 04012KT 2 1/2SM -RA BR BKN008 BKN029 OVC036 08/07 A3022 RMK
                 AO2 SFC VIS 4 P0001 T00780072 =
2018-02-24 21:17 METAR KJFK 250217Z 02009KT 3SM -RA BR SCT008 BKN028 OVC049 08/08 A3021 RMK AO2
                 P0000 T00780078 =
2018-02-24 20:51 METAR KJFK 250151Z 36008KT 6SM -RA BR FEW030 BKN055 OVC065 08/08 A3021 RMK AO2
                 SLP229 P0001 T00830078 =
2018-02-24 19:51 METAR KJFK 250051Z 02004KT 6SM -RA BR FEW042 OVC055 08/08 A3019 RMK AO2 RAB39
                 SLP224 P0000 T00830078 =
2018-02-24 18:51 METAR KJFK 242351Z 04005KT 10SM FEW011 OVC060 08/07 A3019 RMK AO2 RAB2259E15
                 SLP221 P0000 60006 T00830072 10122 20083 53003 =
2018-02-24 17:51 METAR KJFK 242251Z 02008KT 10SM FEW047 OVC060 08/07 A3018 RMK AO2 RAE41 SLP221
                 P0000 T00830067 =
2018-02-24 16:51 METAR KJFK 242151Z 01006KT 9SM -RA BKN047 OVC060 09/07 A3018 RMK AO2 SLP218
                 P0001 T00890072 =
2018-02-24 15:51 METAR KJFK 242051Z 01006KT 3SM RA OVC060 09/07 A3018 RMK AO2 RAB04 SLP219 P0005
                 60005 T00940067 53007 =
2018-02-24 14:51 METAR KJFK 241951Z 36008KT 10SM SCT070 BKN090 OVC110 12/04 A3014 RMK AO2
                 RAE1853B30E42 SLP205 P0000 T01170044 =
2018-02-24 13:51 METAR KJFK 241851Z 33009KT 10SM -RA BKN070 OVC095 12/04 A3014 RMK AO2
                 RAB1754E05B43 SLP207 P0000 T01170044 =
2018-02-24 12:51 METAR KJFK 241751Z 24008KT 9SM OVC085 09/07 A3016 RMK AO2 WSHFT 1652 RAB21E39
                 SLP212 P0000 60000 T00940072 10122 20067 58002 =
2018-02-24 12:12 METAR KJFK 241712Z 24012KT 9SM OVC090 09/07 A3018 RMK AO2 WSHFT 1652 T00890067 =
2018-02-24 11:51 METAR KJFK 241651Z 25008KT 220V290 10SM BKN090 BKN110 OVC250 12/05 A3019 RMK AO2
                 PRESRR SLP222 T01170050 =
2018-02-24 10:51 METAR KJFK 241551Z 32008KT 10SM BKN100 BKN250 11/05 A3017 RMK AO2 SLP216
                 T01110050 =
2018-02-24 09:51 METAR KJFK 241451Z 33010KT 10SM BKN100 BKN250 11/06 A3016 RMK AO2 SLP214
                 T01110056 58008 =
2018-02-24 08:51 METAR KJFK 241351Z 24007KT 7SM BKN220 BKN250 08/07 A3018 RMK AO2 SLP218
                 T00830067 =
2018-02-24 07:51 METAR KJFK 241251Z 29008KT 8SM FEW014 SCT200 BKN250 08/07 A3018 RMK AO2 SLP220
                 T00830067 =
2018-02-24 07:05 METAR KJFK 241205Z 28008KT 6SM BR SCT013 BKN190 BKN230 07/06 A3018 RMK AO2
                 T00670056 =
2018-02-24 06:51 METAR KJFK 241151Z 27009KT 6SM BR BKN013 BKN190 07/06 A3019 RMK AO2 SLP222 70012
                 T00670056 10067 20056 53013 =
2018-02-24 06:31 METAR KJFK 241131Z 27010KT 8SM BKN015 BKN190 07/06 A3018 RMK AO2 T00670056 =
2018-02-24 05:51 METAR KJFK 241051Z 27008KT 6SM BR FEW008 SCT150 SCT200 06/06 A3017 RMK AO2
                 SLP216 T00560056 =
2018-02-24 04:51 METAR KJFK 240951Z 24009KT 6SM BR SCT007 BKN150 BKN200 06/06 A3016 RMK AO2
                 SLP212 T00560056 =
2018-02-24 03:51 METAR KJFK 240851Z 27008KT 8SM OVC007 06/06 A3015 RMK AO2 SLP210 T00610056 57015
                 =
2018-02-24 02:51 METAR KJFK 240751Z 27012KT 8SM OVC007 06/06 A3017 RMK AO2 SLP216 T00610056 =
2018-02-24 01:51 METAR KJFK 240651Z 25009KT 8SM BKN008 BKN011 OVC060 06/06 A3018 RMK AO2 SLP218
                 T00610056 =
2018-02-24 00:51 METAR KJFK 240551Z 25007KT 6SM BR BKN008 BKN011 BKN050 OVC160 06/06 A3020 RMK
                 AO2 SLP225 T00560056 10056 20039 55015 =
2018-02-23 23:51 METAR KJFK 240451Z 22008KT 6SM BR BKN006 BKN065 OVC160 04/04 A3018 RMK AO2
                 SLP220 T00440044 400440022 =
2018-02-23 22:51 METAR KJFK 240351Z 22010KT 2 1/2SM BR OVC006 04/04 A3021 RMK AO2 SFC VIS 6
                 SLP229 T00440044 =

Support USWX by starting your Amazon purchase here.